createdAt,value
2023-01-01T00:00:30.431Z,9.37
2023-01-01T00:02:57.862Z,9.40
2023-01-01T00:05:25.355Z,9.42
2023-01-01T00:08:04.690Z,9.46
2023-01-01T00:10:33.681Z,9.37
2023-01-01T00:13:01.247Z,9.37
2023-01-01T00:15:28.884Z,9.35
2023-01-01T00:17:57.785Z,9.23
2023-01-01T00:20:28.797Z,9.37
2023-01-01T00:22:59.009Z,9.39
2023-01-01T00:25:26.455Z,9.44
2023-01-01T00:27:54.205Z,9.46
2023-01-01T00:30:22.099Z,9.41
2023-01-01T00:32:54.359Z,9.41
2023-01-01T00:35:27.199Z,9.37
2023-01-01T00:37:55.810Z,9.39
2023-01-01T00:40:23.660Z,9.42
2023-01-01T00:42:51.608Z,9.40
2023-01-01T00:45:22.199Z,9.44
2023-01-01T00:47:52.918Z,9.45
2023-01-01T00:50:21.843Z,9.46
2023-01-01T00:52:50.224Z,9.46
2023-01-01T00:55:18.008Z,9.43
2023-01-01T00:57:45.647Z,9.51
2023-01-01T01:00:13.973Z,9.52
2023-01-01T01:02:41.875Z,9.55
2023-01-01T01:05:09.951Z,9.50
2023-01-01T01:08:12.793Z,9.54
2023-01-01T01:10:40.217Z,9.57
2023-01-01T01:13:07.503Z,9.56
2023-01-01T01:15:34.792Z,9.54
2023-01-01T01:18:02.129Z,9.57
2023-01-01T01:20:29.386Z,9.55
2023-01-01T01:22:56.756Z,9.53
2023-01-01T01:25:24.134Z,9.51
2023-01-01T01:27:51.451Z,9.53
2023-01-01T01:30:18.879Z,9.53
2023-01-01T01:32:46.256Z,9.53
2023-01-01T01:35:13.589Z,9.57
2023-01-01T01:37:41.034Z,9.57
2023-01-01T01:40:09.266Z,9.57
2023-01-01T01:42:36.613Z,9.51
2023-01-01T01:45:07.029Z,9.48
2023-01-01T01:47:51.115Z,9.52
2023-01-01T01:50:34.624Z,9.52
2023-01-01T01:53:09.154Z,9.49
2023-01-01T01:55:41.165Z,9.44
2023-01-01T01:58:11.609Z,9.50
2023-01-01T02:00:39.100Z,9.45
2023-01-01T02:03:10.001Z,9.42
2023-01-01T02:05:40.558Z,9.41
2023-01-01T02:08:09.946Z,9.41
2023-01-01T02:10:37.321Z,9.38
2023-01-01T02:13:04.711Z,9.39
2023-01-01T02:15:48.821Z,9.45
2023-01-01T02:18:21.398Z,9.43
2023-01-01T02:21:03.614Z,9.40
2023-01-01T02:23:54.115Z,9.43
2023-01-01T02:26:42.645Z,9.49
2023-01-01T02:29:10.053Z,9.51
2023-01-01T02:31:46.013Z,9.52
2023-01-01T02:34:18.161Z,9.54
2023-01-01T02:36:54.633Z,9.52
2023-01-01T02:39:27.957Z,9.50
2023-01-01T02:41:58.975Z,9.44
2023-01-01T02:44:28.471Z,9.35
2023-01-01T02:46:55.831Z,9.41
2023-01-01T02:49:24.846Z,9.42
2023-01-01T02:52:11.272Z,9.50
2023-01-01T02:55:02.803Z,9.46
2023-01-01T02:57:40.720Z,9.49
2023-01-01T03:00:31.723Z,9.51
2023-01-01T03:03:38.136Z,9.54
2023-01-01T03:06:24.661Z,9.55
2023-01-01T03:08:52.134Z,9.53
2023-01-01T03:11:23.255Z,9.52
2023-01-01T03:14:06.812Z,9.55
2023-01-01T03:16:41.603Z,9.51
2023-01-01T03:19:20.269Z,9.55
2023-01-01T03:21:52.191Z,9.56
2023-01-01T03:24:35.095Z,9.58
2023-01-01T03:27:08.877Z,9.57
2023-01-01T03:29:40.397Z,9.57
2023-01-01T03:32:14.539Z,9.53
2023-01-01T03:34:47.716Z,9.56
2023-01-01T03:37:22.446Z,9.54
2023-01-01T03:39:57.621Z,9.52
2023-01-01T03:42:40.848Z,9.54
2023-01-01T03:45:18.758Z,9.48
2023-01-01T03:47:46.560Z,9.49
2023-01-01T03:50:15.109Z,9.51
2023-01-01T03:53:03.580Z,9.49
2023-01-01T03:55:39.836Z,9.52
2023-01-01T03:58:20.683Z,9.52
2023-01-01T04:00:57.757Z,9.52
2023-01-01T04:03:30.797Z,9.50
2023-01-01T04:05:58.291Z,9.49
2023-01-01T04:08:33.146Z,9.52
2023-01-01T04:11:27.136Z,9.41
2023-01-01T04:13:54.646Z,9.46
2023-01-01T04:16:22.221Z,9.51
2023-01-01T04:18:49.792Z,9.50
2023-01-01T04:21:17.296Z,9.46
2023-01-01T04:23:44.821Z,9.33
2023-01-01T04:26:15.592Z,9.44
2023-01-01T04:28:43.980Z,9.48
2023-01-01T04:31:11.833Z,9.44
2023-01-01T04:33:39.407Z,9.46
2023-01-01T04:36:10.551Z,9.48
2023-01-01T04:38:38.494Z,9.43
2023-01-01T04:41:05.996Z,9.49
2023-01-01T04:43:33.543Z,9.53
2023-01-01T04:46:02.830Z,9.53
2023-01-01T04:48:31.645Z,9.47
2023-01-01T04:51:02.747Z,9.42
2023-01-01T04:53:32.728Z,9.38
2023-01-01T04:56:14.856Z,9.46
2023-01-01T04:58:43.832Z,9.45
2023-01-01T05:01:18.118Z,9.45
2023-01-01T05:03:46.324Z,9.43
2023-01-01T05:06:15.218Z,9.40
2023-01-01T05:08:45.078Z,9.37
2023-01-01T05:11:16.677Z,9.37
2023-01-01T05:13:46.254Z,9.44
2023-01-01T05:16:18.993Z,9.44
2023-01-01T05:18:47.883Z,9.36
2023-01-01T05:21:17.680Z,9.33
2023-01-01T05:23:45.437Z,9.40
2023-01-01T05:26:14.195Z,9.40
2023-01-01T05:28:42.507Z,9.40
2023-01-01T05:31:13.730Z,9.40
2023-01-01T05:33:41.715Z,9.28
2023-01-01T05:36:14.310Z,9.27
2023-01-01T05:38:41.716Z,9.41
2023-01-01T05:41:11.946Z,9.38
2023-01-01T05:43:39.447Z,9.33
2023-01-01T05:46:10.909Z,9.39
2023-01-01T05:48:38.862Z,9.33
2023-01-01T05:51:18.643Z,9.30
2023-01-01T05:53:47.061Z,9.34
2023-01-01T05:56:16.413Z,9.37
2023-01-01T05:58:44.853Z,9.27
2023-01-01T06:01:19.040Z,9.31
2023-01-01T06:03:49.066Z,9.32
2023-01-01T06:06:19.093Z,9.41
2023-01-01T06:08:51.385Z,9.40
2023-01-01T06:11:19.296Z,9.41
2023-01-01T06:13:47.181Z,9.39
2023-01-01T06:16:15.163Z,9.34
2023-01-01T06:18:42.684Z,9.26
2023-01-01T06:21:15.342Z,9.26
2023-01-01T06:23:43.767Z,9.36
2023-01-01T06:26:16.067Z,9.31
2023-01-01T06:28:44.669Z,9.31
2023-01-01T06:31:14.088Z,9.32
2023-01-01T06:33:43.407Z,9.26
2023-01-01T06:36:12.684Z,9.29
2023-01-01T06:38:42.787Z,9.24
2023-01-01T06:41:12.458Z,9.21
2023-01-01T06:43:39.967Z,9.20
2023-01-01T06:46:10.505Z,9.16
2023-01-01T06:48:37.921Z,9.27
2023-01-01T06:51:13.706Z,9.24
2023-01-01T06:53:41.255Z,9.13
2023-01-01T06:56:09.184Z,9.16
2023-01-01T06:58:36.713Z,9.17
2023-01-01T07:01:24.457Z,9.24
2023-01-01T07:03:56.883Z,9.24
2023-01-01T07:06:25.477Z,9.23
2023-01-01T07:08:53.112Z,9.21
2023-01-01T07:11:20.994Z,9.15
2023-01-01T07:13:48.478Z,9.16
2023-01-01T07:16:16.279Z,9.12
2023-01-01T07:18:43.930Z,9.12
2023-01-01T07:21:30.278Z,9.15
2023-01-01T07:24:03.450Z,9.14
2023-01-01T07:26:32.478Z,9.12
2023-01-01T07:29:06.891Z,9.19
2023-01-01T07:31:40.618Z,9.29
2023-01-01T07:34:13.120Z,9.22
2023-01-01T07:36:41.413Z,9.25
2023-01-01T07:39:09.290Z,9.35
2023-01-01T07:41:37.267Z,9.40
2023-01-01T07:44:04.863Z,9.33
2023-01-01T07:46:34.990Z,9.43
2023-01-01T07:49:03.536Z,9.46
2023-01-01T07:51:31.252Z,9.43
2023-01-01T07:54:05.763Z,9.50
2023-01-01T07:56:35.815Z,9.40
2023-01-01T07:59:03.773Z,9.46
2023-01-01T08:01:31.346Z,9.41
2023-01-01T08:03:59.012Z,9.42
2023-01-01T08:06:26.484Z,9.53
2023-01-01T08:08:54.193Z,9.54
2023-01-01T08:11:21.506Z,9.54
2023-01-01T08:13:48.808Z,9.51
2023-01-01T08:16:16.159Z,9.56
2023-01-01T08:18:43.579Z,9.58
2023-01-01T08:21:10.999Z,9.62
2023-01-01T08:23:38.394Z,9.65
2023-01-01T08:26:05.797Z,9.69
2023-01-01T08:28:33.215Z,9.70
2023-01-01T08:31:00.710Z,9.77
2023-01-01T08:33:29.912Z,9.77
2023-01-01T08:35:58.475Z,9.82
2023-01-01T08:38:26.502Z,9.85
2023-01-01T08:40:53.897Z,9.90
2023-01-01T08:43:21.275Z,9.86
2023-01-01T08:45:50.530Z,9.89
2023-01-01T08:48:17.851Z,9.97
2023-01-01T08:50:45.297Z,10.06
2023-01-01T08:53:13.280Z,9.98
2023-01-01T08:55:40.670Z,9.89
2023-01-01T08:58:08.135Z,10.01
2023-01-01T09:00:35.786Z,9.98
2023-01-01T09:03:03.388Z,10.03
2023-01-01T09:05:30.861Z,10.09
2023-01-01T09:07:58.224Z,10.11
2023-01-01T09:10:25.770Z,10.04
2023-01-01T09:12:53.235Z,10.07
2023-01-01T09:15:20.701Z,10.18
2023-01-01T09:17:48.109Z,10.16
2023-01-01T09:20:15.570Z,10.26
2023-01-01T09:22:42.954Z,10.22
2023-01-01T09:25:10.681Z,10.26
2023-01-01T09:27:38.363Z,10.27
2023-01-01T09:30:06.493Z,10.29
2023-01-01T09:32:34.004Z,10.28
2023-01-01T09:35:01.506Z,10.41
2023-01-01T09:37:29.257Z,10.37
2023-01-01T09:39:57.183Z,10.41
2023-01-01T09:42:36.051Z,10.57
2023-01-01T09:45:09.541Z,10.42
2023-01-01T09:47:47.045Z,10.52
2023-01-01T09:50:19.513Z,10.53
2023-01-01T09:52:53.297Z,10.55
2023-01-01T09:55:42.073Z,10.59
2023-01-01T09:58:11.945Z,10.57
2023-01-01T10:00:43.575Z,10.61
2023-01-01T10:03:49.928Z,10.57
2023-01-01T10:06:28.424Z,10.70
2023-01-01T10:09:13.857Z,10.80
2023-01-01T10:12:03.035Z,10.87
2023-01-01T10:14:41.723Z,10.75
2023-01-01T10:17:21.082Z,10.86
2023-01-01T10:19:53.746Z,10.87
2023-01-01T10:22:26.811Z,10.89
2023-01-01T10:25:19.573Z,10.84
2023-01-01T10:28:07.332Z,10.86
2023-01-01T10:30:34.681Z,10.91
2023-01-01T10:33:02.843Z,11.00
2023-01-01T10:35:34.736Z,11.00
2023-01-01T10:38:04.495Z,11.00
2023-01-01T10:40:33.214Z,11.15
2023-01-01T10:43:02.728Z,11.36
2023-01-01T10:45:36.485Z,11.27
2023-01-01T10:48:17.957Z,11.18
2023-01-01T10:50:53.338Z,11.06
2023-01-01T10:53:31.293Z,11.04
2023-01-01T10:56:14.157Z,11.08
2023-01-01T10:58:50.837Z,11.13
2023-01-01T11:01:18.301Z,11.18
2023-01-01T11:04:00.969Z,11.24
2023-01-01T11:06:36.375Z,11.27
2023-01-01T11:09:21.726Z,11.33
2023-01-01T11:11:57.948Z,11.35
2023-01-01T11:14:38.402Z,11.31
2023-01-01T11:17:06.591Z,11.26
2023-01-01T11:19:36.514Z,11.32
2023-01-01T11:22:05.542Z,11.30
2023-01-01T11:24:34.457Z,11.25
2023-01-01T11:27:13.934Z,11.28
2023-01-01T11:29:41.363Z,11.34
2023-01-01T11:32:09.352Z,11.16
2023-01-01T11:34:39.605Z,11.28
2023-01-01T11:37:34.074Z,11.18
2023-01-01T11:40:03.948Z,11.14
2023-01-01T11:42:34.937Z,11.22
2023-01-01T11:45:04.751Z,11.22
2023-01-01T11:47:55.480Z,11.23
2023-01-01T11:50:25.603Z,11.30
2023-01-01T11:52:55.658Z,11.27
2023-01-01T11:55:43.237Z,11.29
2023-01-01T11:58:27.867Z,11.23
2023-01-01T12:00:59.446Z,11.09
2023-01-01T12:03:38.270Z,11.23
2023-01-01T12:06:21.036Z,11.23
2023-01-01T12:09:26.597Z,11.12
2023-01-01T12:12:20.783Z,11.18
2023-01-01T12:14:53.229Z,11.27
2023-01-01T12:17:26.257Z,11.24
2023-01-01T12:20:12.754Z,11.26
2023-01-01T12:22:41.487Z,11.26
2023-01-01T12:25:15.744Z,11.31
2023-01-01T12:28:00.168Z,11.37
2023-01-01T12:30:38.582Z,11.29
2023-01-01T12:33:16.919Z,11.36
2023-01-01T12:35:55.744Z,11.23
2023-01-01T12:38:28.936Z,11.33
2023-01-01T12:41:01.638Z,11.32
2023-01-01T12:43:47.926Z,11.37
2023-01-01T12:46:35.225Z,11.33
2023-01-01T12:49:14.774Z,11.47
2023-01-01T12:51:57.382Z,11.51
2023-01-01T12:54:53.209Z,11.29
2023-01-01T12:57:26.706Z,11.21
2023-01-01T12:59:55.648Z,11.26
2023-01-01T13:02:29.808Z,11.29
2023-01-01T13:05:03.444Z,11.35
2023-01-01T13:07:43.513Z,11.30
2023-01-01T13:10:39.632Z,11.31
2023-01-01T13:13:07.556Z,11.35
2023-01-01T13:15:37.954Z,11.34
2023-01-01T13:18:20.335Z,11.30
2023-01-01T13:20:55.671Z,11.30
2023-01-01T13:23:29.401Z,11.24
2023-01-01T13:26:18.407Z,11.22
2023-01-01T13:28:58.029Z,11.22
2023-01-01T13:31:41.264Z,11.25
2023-01-01T13:34:30.590Z,11.25
2023-01-01T13:37:10.275Z,11.21
2023-01-01T13:40:05.699Z,11.15
2023-01-01T13:42:52.752Z,11.15
2023-01-01T13:46:10.020Z,11.22
2023-01-01T13:48:36.150Z,11.18
2023-01-01T13:52:04.303Z,11.06
2023-01-01T13:54:55.816Z,11.05
2023-01-01T13:57:32.234Z,11.09
2023-01-01T14:00:20.088Z,11.06
2023-01-01T14:02:59.300Z,11.02
2023-01-01T14:05:38.724Z,11.02
2023-01-01T14:08:13.028Z,11.08
2023-01-01T14:10:40.699Z,10.94
2023-01-01T14:13:11.117Z,10.95
2023-01-01T14:15:43.373Z,10.94
2023-01-01T14:18:16.536Z,10.96
2023-01-01T14:20:49.051Z,11.01
2023-01-01T14:23:23.482Z,10.77
2023-01-01T14:25:51.326Z,10.92
2023-01-01T14:28:30.887Z,10.87
2023-01-01T14:31:07.049Z,10.91
2023-01-01T14:33:39.590Z,10.94
2023-01-01T14:36:21.157Z,10.91
2023-01-01T14:38:51.041Z,10.94
2023-01-01T14:41:41.368Z,10.87
2023-01-01T14:44:18.981Z,10.82
2023-01-01T14:46:53.316Z,10.90
2023-01-01T14:49:34.792Z,10.84
2023-01-01T14:52:26.205Z,10.89
2023-01-01T14:54:56.102Z,10.88
2023-01-01T14:57:27.323Z,10.83
2023-01-01T14:59:56.535Z,10.76
2023-01-01T15:02:26.686Z,10.85
2023-01-01T15:04:54.293Z,10.86
2023-01-01T15:07:29.195Z,10.91
2023-01-01T15:10:00.534Z,10.91
2023-01-01T15:12:29.337Z,10.87
2023-01-01T15:14:58.281Z,10.80
2023-01-01T15:17:27.280Z,10.83
2023-01-01T15:20:05.729Z,10.80
2023-01-01T15:22:36.339Z,10.79
2023-01-01T15:25:04.027Z,10.75
2023-01-01T15:27:36.693Z,10.78
2023-01-01T15:30:13.564Z,10.78
2023-01-01T15:32:41.519Z,10.79
2023-01-01T15:35:23.674Z,10.74
2023-01-01T15:37:59.381Z,10.73
2023-01-01T15:40:26.707Z,10.71
2023-01-01T15:42:56.803Z,10.67
2023-01-01T15:45:32.342Z,10.67
2023-01-01T15:48:05.884Z,10.65
2023-01-01T15:50:40.305Z,10.62
2023-01-01T15:53:23.532Z,10.64
2023-01-01T15:56:03.613Z,10.63
2023-01-01T15:58:35.961Z,10.64
2023-01-01T16:01:28.917Z,10.67
2023-01-01T16:04:28.002Z,10.64
2023-01-01T16:06:58.174Z,10.51
2023-01-01T16:09:26.174Z,10.57
2023-01-01T16:11:55.986Z,10.50
2023-01-01T16:14:24.201Z,10.58
2023-01-01T16:16:58.455Z,10.60
2023-01-01T16:19:26.954Z,10.50
2023-01-01T16:21:54.318Z,10.51
2023-01-01T16:24:21.855Z,10.60
2023-01-01T16:26:49.295Z,10.60
2023-01-01T16:29:16.984Z,10.53
2023-01-01T16:31:47.470Z,10.48
2023-01-01T16:34:15.179Z,10.44
2023-01-01T16:36:43.794Z,10.48
2023-01-01T16:39:11.943Z,10.49
2023-01-01T16:41:44.282Z,10.50
2023-01-01T16:44:15.054Z,10.54
2023-01-01T16:46:42.960Z,10.52
2023-01-01T16:49:11.780Z,10.51
2023-01-01T16:51:43.753Z,10.47
2023-01-01T16:54:11.830Z,10.54
2023-01-01T16:56:39.727Z,10.53
2023-01-01T16:59:07.069Z,10.53
2023-01-01T17:01:34.629Z,10.50
2023-01-01T17:04:02.117Z,10.52
2023-01-01T17:06:29.480Z,10.53
2023-01-01T17:08:58.597Z,10.46
2023-01-01T17:11:26.688Z,10.45
2023-01-01T17:13:54.113Z,10.53
2023-01-01T17:16:27.277Z,10.48
2023-01-01T17:21:45.935Z,10.49
2023-01-01T17:24:15.096Z,10.47
2023-01-01T17:26:42.487Z,10.41
2023-01-01T17:29:10.243Z,10.43
2023-01-01T17:31:38.230Z,10.46
2023-01-01T17:34:05.638Z,10.38
2023-01-01T17:36:33.045Z,10.37
2023-01-01T17:39:00.479Z,10.39
2023-01-01T17:41:27.828Z,10.39
2023-01-01T17:43:56.211Z,10.39
2023-01-01T17:46:26.800Z,10.42
2023-01-01T17:48:54.320Z,10.39
2023-01-01T17:51:22.406Z,10.35
2023-01-01T17:53:49.966Z,10.36
2023-01-01T17:56:19.245Z,10.29
2023-01-01T17:58:47.874Z,10.32
2023-01-01T18:01:24.440Z,10.35
2023-01-01T18:03:58.139Z,10.32
2023-01-01T18:06:26.317Z,10.36
2023-01-01T18:08:58.892Z,10.37
2023-01-01T18:11:29.635Z,10.33
2023-01-01T18:13:58.517Z,10.33
2023-01-01T18:16:26.334Z,10.27
2023-01-01T18:18:53.839Z,10.23
2023-01-01T18:21:23.771Z,10.20
2023-01-01T18:23:53.402Z,10.27
2023-01-01T18:26:23.063Z,10.27
2023-01-01T18:28:58.967Z,10.27
2023-01-01T18:31:28.673Z,10.24
2023-01-01T18:33:56.981Z,10.27
2023-01-01T18:36:27.504Z,10.20
2023-01-01T18:38:59.041Z,10.28
2023-01-01T18:42:00.884Z,10.30
2023-01-01T18:44:30.964Z,10.27
2023-01-01T18:47:02.055Z,10.32
2023-01-01T18:49:30.807Z,10.34
2023-01-01T18:52:23.509Z,10.32
2023-01-01T18:54:57.316Z,10.35
2023-01-01T18:57:29.168Z,10.40
2023-01-01T18:59:59.933Z,10.35
2023-01-01T19:02:45.324Z,10.35
2023-01-01T19:05:24.654Z,10.35
2023-01-01T19:07:59.373Z,10.34
2023-01-01T19:10:34.261Z,10.30
2023-01-01T19:13:16.057Z,10.35
2023-01-01T19:15:44.888Z,10.37
2023-01-01T19:18:22.447Z,10.26
2023-01-01T19:20:59.319Z,10.32
2023-01-01T19:23:26.915Z,10.26
2023-01-01T19:25:58.868Z,10.35
2023-01-01T19:28:31.539Z,10.40
2023-01-01T19:31:09.482Z,10.34
2023-01-01T19:33:36.799Z,10.27
2023-01-01T19:36:04.551Z,10.29
2023-01-01T19:38:32.296Z,10.26
2023-01-01T19:40:59.853Z,10.29
2023-01-01T19:43:32.014Z,10.27
2023-01-01T19:46:02.054Z,10.32
2023-01-01T19:48:32.051Z,10.27
2023-01-01T19:50:59.991Z,10.29
2023-01-01T19:53:27.411Z,10.29
2023-01-01T19:55:54.885Z,10.26
2023-01-01T19:58:23.287Z,10.27
2023-01-01T20:00:54.555Z,10.17
2023-01-01T20:03:52.672Z,10.21
2023-01-01T20:06:36.432Z,10.18
2023-01-01T20:09:04.225Z,10.21
2023-01-01T20:11:32.194Z,10.24
2023-01-01T20:13:59.759Z,10.19
2023-01-01T20:16:27.283Z,10.24
2023-01-01T20:18:55.236Z,10.21
2023-01-01T20:21:41.254Z,10.13
2023-01-01T20:24:08.779Z,10.11
2023-01-01T20:26:36.160Z,10.21
2023-01-01T20:29:21.955Z,10.20
2023-01-01T20:31:52.526Z,10.16
2023-01-01T20:34:20.420Z,10.08
2023-01-01T20:37:06.839Z,10.09
2023-01-01T20:39:38.989Z,10.07
2023-01-01T20:42:15.917Z,10.08
2023-01-01T20:44:44.559Z,9.99
2023-01-01T20:47:14.467Z,10.05
2023-01-01T20:49:42.724Z,10.02
2023-01-01T20:52:10.132Z,9.96
2023-01-01T20:54:37.546Z,10.12
2023-01-01T20:57:04.929Z,10.08
2023-01-01T20:59:37.373Z,10.00
2023-01-01T21:02:08.522Z,10.06
2023-01-01T21:04:38.674Z,10.06
2023-01-01T21:07:09.021Z,10.04
2023-01-01T21:09:40.545Z,10.04
2023-01-01T21:12:08.786Z,10.12
2023-01-01T21:14:36.404Z,10.10
2023-01-01T21:17:24.362Z,10.11
2023-01-01T21:19:55.581Z,10.14
2023-01-01T21:22:23.124Z,10.17
2023-01-01T21:24:54.515Z,10.12
2023-01-01T21:27:34.008Z,10.16
2023-01-01T21:30:01.665Z,10.10
2023-01-01T21:32:41.119Z,10.12
2023-01-01T21:35:18.304Z,10.09
2023-01-01T21:37:49.722Z,10.09
2023-01-01T21:40:35.736Z,10.03
2023-01-01T21:43:06.003Z,10.08
2023-01-01T21:45:43.753Z,10.07
2023-01-01T21:48:19.022Z,10.07
2023-01-01T21:50:47.918Z,10.06
2023-01-01T21:53:18.073Z,10.03
2023-01-01T21:55:54.587Z,10.01
2023-01-01T21:58:44.041Z,10.00
2023-01-01T22:01:28.037Z,9.91
2023-01-01T22:04:14.949Z,9.98
2023-01-01T22:06:47.341Z,10.03
2023-01-01T22:09:29.900Z,10.05
2023-01-01T22:12:02.538Z,9.98
2023-01-01T22:14:38.903Z,10.03
2023-01-01T22:17:23.054Z,10.02
2023-01-01T22:19:51.540Z,10.03
2023-01-01T22:22:22.687Z,9.99
2023-01-01T22:25:02.148Z,9.97
2023-01-01T22:27:36.704Z,9.98
2023-01-01T22:30:19.078Z,10.00
2023-01-01T22:32:52.045Z,9.95
2023-01-01T22:35:28.793Z,9.94
2023-01-01T22:38:06.821Z,9.94
2023-01-01T22:40:37.180Z,9.95
2023-01-01T22:43:08.711Z,9.89
2023-01-01T22:45:48.755Z,9.96
2023-01-01T22:48:25.575Z,10.01
2023-01-01T22:50:54.313Z,9.99
2023-01-01T22:53:21.793Z,10.00
2023-01-01T22:55:49.190Z,9.94
2023-01-01T22:58:16.741Z,10.05
2023-01-01T23:00:44.113Z,9.98
2023-01-01T23:03:11.595Z,9.99
2023-01-01T23:05:39.143Z,10.08
2023-01-01T23:08:06.864Z,10.13
2023-01-01T23:10:34.206Z,10.11
2023-01-01T23:13:21.711Z,10.14
2023-01-01T23:16:01.158Z,10.15
2023-01-01T23:18:36.654Z,10.20
2023-01-01T23:21:08.676Z,10.12
2023-01-01T23:23:37.891Z,10.14
2023-01-01T23:26:08.337Z,10.10
2023-01-01T23:28:37.115Z,10.12
2023-01-01T23:31:07.394Z,10.11
2023-01-01T23:33:35.237Z,10.12
2023-01-01T23:36:03.070Z,10.12
2023-01-01T23:38:32.416Z,10.12
2023-01-01T23:40:59.746Z,10.06
2023-01-01T23:43:27.507Z,10.08
2023-01-01T23:45:55.081Z,10.02
2023-01-01T23:48:23.244Z,10.02
2023-01-01T23:50:50.597Z,10.03
2023-01-01T23:53:17.929Z,9.99
2023-01-01T23:55:45.357Z,9.97
2023-01-01T23:58:13.694Z,9.97
